sensor_id;sensor_type;location;lat;lon;timestamp;P1;durP1;ratioP1;P2;durP2;ratioP2
8580;SDS011;4328;48.622;9.230;2023-08-24T00:00:13;7.47;;;6.27;;
8580;SDS011;4328;48.622;9.230;2023-08-24T00:02:40;6.67;;;6.03;;
8580;SDS011;4328;48.622;9.230;2023-08-24T00:05:06;7.50;;;6.90;;
8580;SDS011;4328;48.622;9.230;2023-08-24T00:07:33;13.53;;;6.60;;
8580;SDS011;4328;48.622;9.230;2023-08-24T00:09:59;6.90;;;6.37;;
8580;SDS011;4328;48.622;9.230;2023-08-24T00:12:25;6.57;;;5.97;;
8580;SDS011;4328;48.622;9.230;2023-08-24T00:14:53;6.33;;;5.83;;
8580;SDS011;4328;48.622;9.230;2023-08-24T00:17:19;7.07;;;6.47;;
8580;SDS011;4328;48.622;9.230;2023-08-24T00:19:48;6.97;;;6.37;;
8580;SDS011;4328;48.622;9.230;2023-08-24T00:22:14;6.77;;;6.17;;
8580;SDS011;4328;48.622;9.230;2023-08-24T00:24:41;6.83;;;5.97;;
8580;SDS011;4328;48.622;9.230;2023-08-24T00:27:07;7.53;;;6.60;;
8580;SDS011;4328;48.622;9.230;2023-08-24T00:29:33;6.67;;;6.10;;
8580;SDS011;4328;48.622;9.230;2023-08-24T00:32:02;7.07;;;6.53;;
8580;SDS011;4328;48.622;9.230;2023-08-24T00:34:28;9.53;;;6.63;;
8580;SDS011;4328;48.622;9.230;2023-08-24T00:36:54;6.67;;;6.07;;
8580;SDS011;4328;48.622;9.230;2023-08-24T00:39:21;6.83;;;6.20;;
8580;SDS011;4328;48.622;9.230;2023-08-24T00:41:47;9.87;;;6.47;;
8580;SDS011;4328;48.622;9.230;2023-08-24T00:44:14;6.57;;;5.97;;
8580;SDS011;4328;48.622;9.230;2023-08-24T00:46:41;7.40;;;6.67;;
8580;SDS011;4328;48.622;9.230;2023-08-24T00:49:10;7.57;;;6.53;;
8580;SDS011;4328;48.622;9.230;2023-08-24T00:51:36;6.83;;;6.23;;
8580;SDS011;4328;48.622;9.230;2023-08-24T00:54:03;7.00;;;6.30;;
8580;SDS011;4328;48.622;9.230;2023-08-24T00:56:30;7.03;;;6.30;;
8580;SDS011;4328;48.622;9.230;2023-08-24T00:58:56;6.90;;;6.30;;
8580;SDS011;4328;48.622;9.230;2023-08-24T01:01:23;6.97;;;6.20;;
8580;SDS011;4328;48.622;9.230;2023-08-24T01:03:50;7.57;;;6.10;;
8580;SDS011;4328;48.622;9.230;2023-08-24T01:06:17;7.93;;;6.13;;
8580;SDS011;4328;48.622;9.230;2023-08-24T01:08:44;7.40;;;6.40;;
8580;SDS011;4328;48.622;9.230;2023-08-24T01:11:11;6.70;;;6.13;;
8580;SDS011;4328;48.622;9.230;2023-08-24T01:13:43;6.73;;;6.13;;
8580;SDS011;4328;48.622;9.230;2023-08-24T01:16:13;10.47;;;6.37;;
8580;SDS011;4328;48.622;9.230;2023-08-24T01:18:40;7.17;;;6.23;;
8580;SDS011;4328;48.622;9.230;2023-08-24T01:21:08;6.73;;;6.27;;
8580;SDS011;4328;48.622;9.230;2023-08-24T01:23:40;7.00;;;6.30;;
8580;SDS011;4328;48.622;9.230;2023-08-24T01:26:09;7.60;;;6.87;;
8580;SDS011;4328;48.622;9.230;2023-08-24T01:28:36;6.77;;;6.27;;
8580;SDS011;4328;48.622;9.230;2023-08-24T01:31:03;6.87;;;6.27;;
8580;SDS011;4328;48.622;9.230;2023-08-24T01:33:29;7.17;;;6.47;;
8580;SDS011;4328;48.622;9.230;2023-08-24T01:35:56;7.20;;;6.50;;
8580;SDS011;4328;48.622;9.230;2023-08-24T01:38:22;6.97;;;6.33;;
8580;SDS011;4328;48.622;9.230;2023-08-24T01:40:52;7.13;;;6.47;;
8580;SDS011;4328;48.622;9.230;2023-08-24T01:43:23;6.83;;;6.30;;
8580;SDS011;4328;48.622;9.230;2023-08-24T01:45:51;6.93;;;6.43;;
8580;SDS011;4328;48.622;9.230;2023-08-24T01:48:18;7.97;;;6.90;;
8580;SDS011;4328;48.622;9.230;2023-08-24T01:50:45;7.20;;;6.60;;
8580;SDS011;4328;48.622;9.230;2023-08-24T01:53:12;7.03;;;6.30;;
8580;SDS011;4328;48.622;9.230;2023-08-24T01:55:38;6.70;;;6.20;;
8580;SDS011;4328;48.622;9.230;2023-08-24T01:58:04;6.70;;;6.20;;
8580;SDS011;4328;48.622;9.230;2023-08-24T02:00:32;7.03;;;6.47;;
8580;SDS011;4328;48.622;9.230;2023-08-24T02:02:59;7.43;;;6.77;;
8580;SDS011;4328;48.622;9.230;2023-08-24T02:05:25;7.20;;;6.57;;
8580;SDS011;4328;48.622;9.230;2023-08-24T02:07:52;7.50;;;6.80;;
8580;SDS011;4328;48.622;9.230;2023-08-24T02:10:19;7.27;;;6.67;;
8580;SDS011;4328;48.622;9.230;2023-08-24T02:12:45;7.33;;;6.73;;
8580;SDS011;4328;48.622;9.230;2023-08-24T02:15:12;6.90;;;6.30;;
8580;SDS011;4328;48.622;9.230;2023-08-24T02:17:39;7.43;;;6.70;;
8580;SDS011;4328;48.622;9.230;2023-08-24T02:20:06;7.17;;;6.67;;
8580;SDS011;4328;48.622;9.230;2023-08-24T02:22:34;7.00;;;6.50;;
8580;SDS011;4328;48.622;9.230;2023-08-24T02:25:00;7.57;;;6.97;;
8580;SDS011;4328;48.622;9.230;2023-08-24T02:27:28;6.87;;;6.27;;
8580;SDS011;4328;48.622;9.230;2023-08-24T02:29:54;8.97;;;7.03;;
8580;SDS011;4328;48.622;9.230;2023-08-24T02:32:20;7.87;;;7.27;;
8580;SDS011;4328;48.622;9.230;2023-08-24T02:34:48;8.13;;;7.07;;
8580;SDS011;4328;48.622;9.230;2023-08-24T02:37:15;7.37;;;6.77;;
8580;SDS011;4328;48.622;9.230;2023-08-24T02:39:41;7.90;;;7.10;;
8580;SDS011;4328;48.622;9.230;2023-08-24T02:42:07;7.43;;;6.83;;
8580;SDS011;4328;48.622;9.230;2023-08-24T02:44:34;8.03;;;7.23;;
8580;SDS011;4328;48.622;9.230;2023-08-24T02:47:00;7.87;;;7.23;;
8580;SDS011;4328;48.622;9.230;2023-08-24T02:49:27;7.87;;;7.17;;
8580;SDS011;4328;48.622;9.230;2023-08-24T02:51:54;8.33;;;7.53;;
8580;SDS011;4328;48.622;9.230;2023-08-24T02:54:21;7.03;;;6.37;;
8580;SDS011;4328;48.622;9.230;2023-08-24T02:56:47;9.00;;;6.97;;
8580;SDS011;4328;48.622;9.230;2023-08-24T02:59:14;8.37;;;7.57;;
8580;SDS011;4328;48.622;9.230;2023-08-24T03:01:40;7.10;;;6.60;;
8580;SDS011;4328;48.622;9.230;2023-08-24T03:04:06;7.70;;;7.00;;
8580;SDS011;4328;48.622;9.230;2023-08-24T03:06:33;7.90;;;7.20;;
8580;SDS011;4328;48.622;9.230;2023-08-24T03:09:01;7.77;;;7.07;;
8580;SDS011;4328;48.622;9.230;2023-08-24T03:11:29;7.13;;;6.63;;
8580;SDS011;4328;48.622;9.230;2023-08-24T03:13:55;7.50;;;6.97;;
8580;SDS011;4328;48.622;9.230;2023-08-24T03:16:21;7.87;;;7.27;;
8580;SDS011;4328;48.622;9.230;2023-08-24T03:18:48;7.30;;;6.80;;
8580;SDS011;4328;48.622;9.230;2023-08-24T03:21:14;8.33;;;7.50;;
8580;SDS011;4328;48.622;9.230;2023-08-24T03:23:41;7.20;;;6.60;;
8580;SDS011;4328;48.622;9.230;2023-08-24T03:26:08;8.10;;;7.50;;
8580;SDS011;4328;48.622;9.230;2023-08-24T03:28:35;7.80;;;7.03;;
8580;SDS011;4328;48.622;9.230;2023-08-24T03:31:02;8.00;;;7.30;;
8580;SDS011;4328;48.622;9.230;2023-08-24T03:33:28;8.13;;;7.43;;
8580;SDS011;4328;48.622;9.230;2023-08-24T03:35:55;8.10;;;7.47;;
8580;SDS011;4328;48.622;9.230;2023-08-24T03:38:22;7.47;;;6.97;;
8580;SDS011;4328;48.622;9.230;2023-08-24T03:40:48;7.70;;;7.10;;
8580;SDS011;4328;48.622;9.230;2023-08-24T03:43:16;8.07;;;7.37;;
8580;SDS011;4328;48.622;9.230;2023-08-24T03:45:42;7.23;;;6.73;;
8580;SDS011;4328;48.622;9.230;2023-08-24T03:48:09;8.17;;;7.47;;
8580;SDS011;4328;48.622;9.230;2023-08-24T03:50:35;8.27;;;7.60;;
8580;SDS011;4328;48.622;9.230;2023-08-24T03:53:03;8.57;;;7.40;;
8580;SDS011;4328;48.622;9.230;2023-08-24T03:55:29;8.10;;;7.50;;
8580;SDS011;4328;48.622;9.230;2023-08-24T03:57:58;7.90;;;7.30;;
8580;SDS011;4328;48.622;9.230;2023-08-24T04:00:25;7.93;;;7.23;;
8580;SDS011;4328;48.622;9.230;2023-08-24T04:02:52;8.53;;;7.77;;
8580;SDS011;4328;48.622;9.230;2023-08-24T04:05:18;8.67;;;7.87;;
8580;SDS011;4328;48.622;9.230;2023-08-24T04:07:45;8.43;;;7.73;;
8580;SDS011;4328;48.622;9.230;2023-08-24T04:10:11;8.53;;;7.80;;
8580;SDS011;4328;48.622;9.230;2023-08-24T04:12:37;7.63;;;6.97;;
8580;SDS011;4328;48.622;9.230;2023-08-24T04:15:04;7.83;;;6.97;;
8580;SDS011;4328;48.622;9.230;2023-08-24T04:17:32;8.20;;;7.53;;
8580;SDS011;4328;48.622;9.230;2023-08-24T04:19:58;7.80;;;7.20;;
8580;SDS011;4328;48.622;9.230;2023-08-24T04:22:25;7.87;;;7.30;;
8580;SDS011;4328;48.622;9.230;2023-08-24T04:24:51;8.60;;;7.77;;
8580;SDS011;4328;48.622;9.230;2023-08-24T04:27:18;8.40;;;7.63;;
8580;SDS011;4328;48.622;9.230;2023-08-24T04:29:45;8.47;;;7.57;;
8580;SDS011;4328;48.622;9.230;2023-08-24T04:32:11;7.83;;;7.03;;
8580;SDS011;4328;48.622;9.230;2023-08-24T04:34:39;8.60;;;7.80;;
8580;SDS011;4328;48.622;9.230;2023-08-24T04:37:05;8.80;;;7.60;;
8580;SDS011;4328;48.622;9.230;2023-08-24T04:39:32;7.73;;;7.13;;
8580;SDS011;4328;48.622;9.230;2023-08-24T04:41:58;9.13;;;8.10;;
8580;SDS011;4328;48.622;9.230;2023-08-24T04:44:24;7.53;;;6.97;;
8580;SDS011;4328;48.622;9.230;2023-08-24T04:46:51;7.50;;;7.00;;
8580;SDS011;4328;48.622;9.230;2023-08-24T04:49:17;7.63;;;7.03;;
8580;SDS011;4328;48.622;9.230;2023-08-24T04:51:45;7.53;;;7.03;;
8580;SDS011;4328;48.622;9.230;2023-08-24T04:54:11;7.60;;;7.00;;
8580;SDS011;4328;48.622;9.230;2023-08-24T04:56:38;7.67;;;6.93;;
8580;SDS011;4328;48.622;9.230;2023-08-24T04:59:04;7.23;;;6.63;;
8580;SDS011;4328;48.622;9.230;2023-08-24T05:01:33;7.47;;;6.73;;
8580;SDS011;4328;48.622;9.230;2023-08-24T05:03:59;7.13;;;6.53;;
8580;SDS011;4328;48.622;9.230;2023-08-24T05:06:26;8.33;;;7.10;;
8580;SDS011;4328;48.622;9.230;2023-08-24T05:08:53;8.27;;;7.37;;
8580;SDS011;4328;48.622;9.230;2023-08-24T05:11:21;7.30;;;6.70;;
8580;SDS011;4328;48.622;9.230;2023-08-24T05:13:49;7.97;;;7.23;;
8580;SDS011;4328;48.622;9.230;2023-08-24T05:16:15;9.20;;;6.70;;
8580;SDS011;4328;48.622;9.230;2023-08-24T05:18:42;7.40;;;6.70;;
8580;SDS011;4328;48.622;9.230;2023-08-24T05:21:08;8.03;;;7.43;;
8580;SDS011;4328;48.622;9.230;2023-08-24T05:23:35;8.87;;;7.07;;
8580;SDS011;4328;48.622;9.230;2023-08-24T05:26:02;6.97;;;6.43;;
8580;SDS011;4328;48.622;9.230;2023-08-24T05:28:29;7.30;;;6.60;;
8580;SDS011;4328;48.622;9.230;2023-08-24T05:30:58;7.47;;;6.87;;
8580;SDS011;4328;48.622;9.230;2023-08-24T05:33:26;7.07;;;6.47;;
8580;SDS011;4328;48.622;9.230;2023-08-24T05:35:56;7.80;;;7.10;;
8580;SDS011;4328;48.622;9.230;2023-08-24T05:38:22;6.70;;;6.10;;
8580;SDS011;4328;48.622;9.230;2023-08-24T05:40:49;6.90;;;6.37;;
8580;SDS011;4328;48.622;9.230;2023-08-24T05:43:16;6.93;;;6.37;;
8580;SDS011;4328;48.622;9.230;2023-08-24T05:45:43;6.80;;;6.20;;
8580;SDS011;4328;48.622;9.230;2023-08-24T05:48:10;6.87;;;6.30;;
8580;SDS011;4328;48.622;9.230;2023-08-24T05:50:36;6.93;;;6.43;;
8580;SDS011;4328;48.622;9.230;2023-08-24T05:53:03;8.57;;;6.60;;
8580;SDS011;4328;48.622;9.230;2023-08-24T05:55:30;7.23;;;6.63;;
8580;SDS011;4328;48.622;9.230;2023-08-24T05:57:56;6.60;;;6.10;;
8580;SDS011;4328;48.622;9.230;2023-08-24T06:00:24;6.50;;;6.00;;
8580;SDS011;4328;48.622;9.230;2023-08-24T06:02:50;6.20;;;5.70;;
8580;SDS011;4328;48.622;9.230;2023-08-24T06:05:16;6.67;;;6.07;;
8580;SDS011;4328;48.622;9.230;2023-08-24T06:07:43;5.90;;;5.30;;
8580;SDS011;4328;48.622;9.230;2023-08-24T06:10:10;6.10;;;5.60;;
8580;SDS011;4328;48.622;9.230;2023-08-24T06:12:37;6.13;;;5.57;;
8580;SDS011;4328;48.622;9.230;2023-08-24T06:15:04;5.63;;;5.23;;
8580;SDS011;4328;48.622;9.230;2023-08-24T06:17:34;5.53;;;5.07;;
8580;SDS011;4328;48.622;9.230;2023-08-24T06:20:00;6.13;;;5.53;;
8580;SDS011;4328;48.622;9.230;2023-08-24T06:22:28;5.93;;;5.43;;
8580;SDS011;4328;48.622;9.230;2023-08-24T06:24:55;7.80;;;5.47;;
8580;SDS011;4328;48.622;9.230;2023-08-24T06:27:24;5.97;;;5.37;;
8580;SDS011;4328;48.622;9.230;2023-08-24T06:29:51;5.87;;;5.27;;
8580;SDS011;4328;48.622;9.230;2023-08-24T06:32:17;6.20;;;5.23;;
8580;SDS011;4328;48.622;9.230;2023-08-24T06:34:45;8.70;;;5.57;;
8580;SDS011;4328;48.622;9.230;2023-08-24T06:37:11;5.37;;;4.97;;
8580;SDS011;4328;48.622;9.230;2023-08-24T06:39:37;5.50;;;5.10;;
8580;SDS011;4328;48.622;9.230;2023-08-24T06:42:04;5.97;;;5.47;;
8580;SDS011;4328;48.622;9.230;2023-08-24T06:44:30;6.13;;;5.17;;
8580;SDS011;4328;48.622;9.230;2023-08-24T06:46:57;5.80;;;5.10;;
8580;SDS011;4328;48.622;9.230;2023-08-24T06:49:23;6.03;;;5.53;;
8580;SDS011;4328;48.622;9.230;2023-08-24T06:51:51;5.53;;;5.13;;
8580;SDS011;4328;48.622;9.230;2023-08-24T06:54:18;6.40;;;5.27;;
8580;SDS011;4328;48.622;9.230;2023-08-24T06:56:44;5.80;;;5.30;;
8580;SDS011;4328;48.622;9.230;2023-08-24T06:59:10;7.80;;;5.43;;
8580;SDS011;4328;48.622;9.230;2023-08-24T07:01:38;5.80;;;5.13;;
8580;SDS011;4328;48.622;9.230;2023-08-24T07:04:05;6.00;;;5.50;;
8580;SDS011;4328;48.622;9.230;2023-08-24T07:06:32;6.00;;;5.30;;
8580;SDS011;4328;48.622;9.230;2023-08-24T07:09:00;5.87;;;5.37;;
8580;SDS011;4328;48.622;9.230;2023-08-24T07:11:31;5.60;;;5.10;;
8580;SDS011;4328;48.622;9.230;2023-08-24T07:13:57;7.60;;;5.37;;
8580;SDS011;4328;48.622;9.230;2023-08-24T07:16:24;6.37;;;5.77;;
8580;SDS011;4328;48.622;9.230;2023-08-24T07:18:50;7.50;;;5.43;;
8580;SDS011;4328;48.622;9.230;2023-08-24T07:21:16;6.03;;;5.53;;
8580;SDS011;4328;48.622;9.230;2023-08-24T07:23:43;5.90;;;5.40;;
8580;SDS011;4328;48.622;9.230;2023-08-24T07:26:12;5.50;;;5.10;;
8580;SDS011;4328;48.622;9.230;2023-08-24T07:28:38;5.67;;;5.07;;
8580;SDS011;4328;48.622;9.230;2023-08-24T07:31:08;5.43;;;4.93;;
8580;SDS011;4328;48.622;9.230;2023-08-24T07:33:35;6.83;;;5.33;;
8580;SDS011;4328;48.622;9.230;2023-08-24T07:36:02;8.80;;;5.30;;
8580;SDS011;4328;48.622;9.230;2023-08-24T07:38:29;6.67;;;5.13;;
8580;SDS011;4328;48.622;9.230;2023-08-24T07:40:56;5.93;;;5.40;;
8580;SDS011;4328;48.622;9.230;2023-08-24T07:43:23;6.73;;;4.80;;
8580;SDS011;4328;48.622;9.230;2023-08-24T07:45:50;5.57;;;5.10;;
8580;SDS011;4328;48.622;9.230;2023-08-24T07:48:17;8.30;;;4.70;;
8580;SDS011;4328;48.622;9.230;2023-08-24T07:50:43;5.40;;;4.90;;
8580;SDS011;4328;48.622;9.230;2023-08-24T07:53:09;5.83;;;5.23;;
8580;SDS011;4328;48.622;9.230;2023-08-24T07:55:36;6.82;;;4.82;;
8580;SDS011;4328;48.622;9.230;2023-08-24T07:58:02;10.80;;;5.95;;
8580;SDS011;4328;48.622;9.230;2023-08-24T08:00:31;8.02;;;6.22;;
8580;SDS011;4328;48.622;9.230;2023-08-24T08:02:58;7.22;;;5.40;;
8580;SDS011;4328;48.622;9.230;2023-08-24T08:05:25;8.98;;;5.63;;
8580;SDS011;4328;48.622;9.230;2023-08-24T08:07:51;7.57;;;5.60;;
8580;SDS011;4328;48.622;9.230;2023-08-24T08:10:18;5.82;;;5.05;;
8580;SDS011;4328;48.622;9.230;2023-08-24T08:12:46;6.38;;;5.78;;
8580;SDS011;4328;48.622;9.230;2023-08-24T08:15:12;6.28;;;5.68;;
8580;SDS011;4328;48.622;9.230;2023-08-24T08:17:40;7.05;;;5.20;;
8580;SDS011;4328;48.622;9.230;2023-08-24T08:20:07;5.45;;;4.95;;
8580;SDS011;4328;48.622;9.230;2023-08-24T08:22:36;7.65;;;5.38;;
8580;SDS011;4328;48.622;9.230;2023-08-24T08:25:04;7.00;;;5.68;;
8580;SDS011;4328;48.622;9.230;2023-08-24T08:27:30;7.10;;;5.07;;
8580;SDS011;4328;48.622;9.230;2023-08-24T08:29:57;8.52;;;5.60;;
8580;SDS011;4328;48.622;9.230;2023-08-24T08:32:24;8.98;;;5.60;;
8580;SDS011;4328;48.622;9.230;2023-08-24T08:34:53;10.27;;;5.10;;
8580;SDS011;4328;48.622;9.230;2023-08-24T08:37:22;5.68;;;4.60;;
8580;SDS011;4328;48.622;9.230;2023-08-24T08:39:48;6.72;;;4.60;;
8580;SDS011;4328;48.622;9.230;2023-08-24T08:42:14;6.85;;;4.88;;
8580;SDS011;4328;48.622;9.230;2023-08-24T08:44:41;6.32;;;4.35;;
8580;SDS011;4328;48.622;9.230;2023-08-24T08:47:07;5.30;;;4.45;;
8580;SDS011;4328;48.622;9.230;2023-08-24T08:49:35;4.82;;;3.97;;
8580;SDS011;4328;48.622;9.230;2023-08-24T08:52:04;4.43;;;4.05;;
8580;SDS011;4328;48.622;9.230;2023-08-24T08:54:30;4.30;;;3.90;;
8580;SDS011;4328;48.622;9.230;2023-08-24T08:56:58;6.32;;;3.92;;
8580;SDS011;4328;48.622;9.230;2023-08-24T08:59:24;5.35;;;4.57;;
8580;SDS011;4328;48.622;9.230;2023-08-24T09:01:54;6.18;;;4.20;;
8580;SDS011;4328;48.622;9.230;2023-08-24T09:04:21;6.43;;;4.40;;
8580;SDS011;4328;48.622;9.230;2023-08-24T09:06:48;5.90;;;4.40;;
8580;SDS011;4328;48.622;9.230;2023-08-24T09:09:16;5.30;;;4.15;;
8580;SDS011;4328;48.622;9.230;2023-08-24T09:11:43;5.85;;;4.10;;
8580;SDS011;4328;48.622;9.230;2023-08-24T09:14:12;5.15;;;3.90;;
8580;SDS011;4328;48.622;9.230;2023-08-24T09:16:39;4.55;;;3.72;;
8580;SDS011;4328;48.622;9.230;2023-08-24T09:19:05;5.32;;;3.83;;
8580;SDS011;4328;48.622;9.230;2023-08-24T09:21:34;6.45;;;3.78;;
8580;SDS011;4328;48.622;9.230;2023-08-24T09:24:02;7.95;;;3.83;;
8580;SDS011;4328;48.622;9.230;2023-08-24T09:26:30;4.68;;;4.00;;
8580;SDS011;4328;48.622;9.230;2023-08-24T09:28:57;4.05;;;3.40;;
8580;SDS011;4328;48.622;9.230;2023-08-24T09:31:23;4.75;;;3.47;;
8580;SDS011;4328;48.622;9.230;2023-08-24T09:33:50;4.25;;;3.20;;
8580;SDS011;4328;48.622;9.230;2023-08-24T09:36:25;3.42;;;3.05;;
8580;SDS011;4328;48.622;9.230;2023-08-24T09:38:52;7.78;;;3.63;;
8580;SDS011;4328;48.622;9.230;2023-08-24T09:41:21;5.00;;;3.00;;
8580;SDS011;4328;48.622;9.230;2023-08-24T09:43:49;6.78;;;3.40;;
8580;SDS011;4328;48.622;9.230;2023-08-24T09:46:18;4.28;;;3.08;;
8580;SDS011;4328;48.622;9.230;2023-08-24T09:48:45;5.07;;;3.00;;
8580;SDS011;4328;48.622;9.230;2023-08-24T09:51:12;4.55;;;2.80;;
8580;SDS011;4328;48.622;9.230;2023-08-24T09:53:39;3.97;;;3.05;;
8580;SDS011;4328;48.622;9.230;2023-08-24T09:56:07;4.38;;;3.15;;
8580;SDS011;4328;48.622;9.230;2023-08-24T09:58:34;5.82;;;2.90;;
8580;SDS011;4328;48.622;9.230;2023-08-24T10:01:02;3.63;;;2.85;;
8580;SDS011;4328;48.622;9.230;2023-08-24T10:03:31;6.07;;;3.40;;
8580;SDS011;4328;48.622;9.230;2023-08-24T10:05:58;4.93;;;2.92;;
8580;SDS011;4328;48.622;9.230;2023-08-24T10:08:26;3.22;;;3.00;;
8580;SDS011;4328;48.622;9.230;2023-08-24T10:10:54;6.55;;;2.80;;
8580;SDS011;4328;48.622;9.230;2023-08-24T10:13:23;5.45;;;3.17;;
8580;SDS011;4328;48.622;9.230;2023-08-24T10:15:52;5.72;;;2.90;;
8580;SDS011;4328;48.622;9.230;2023-08-24T10:18:21;4.68;;;3.00;;
8580;SDS011;4328;48.622;9.230;2023-08-24T10:20:49;3.83;;;3.17;;
8580;SDS011;4328;48.622;9.230;2023-08-24T10:23:16;7.88;;;3.20;;
8580;SDS011;4328;48.622;9.230;2023-08-24T10:25:43;3.65;;;3.35;;
8580;SDS011;4328;48.622;9.230;2023-08-24T10:28:10;5.32;;;3.50;;
8580;SDS011;4328;48.622;9.230;2023-08-24T10:30:37;4.20;;;3.30;;
8580;SDS011;4328;48.622;9.230;2023-08-24T10:33:04;4.13;;;3.45;;
8580;SDS011;4328;48.622;9.230;2023-08-24T10:35:32;7.45;;;3.08;;
8580;SDS011;4328;48.622;9.230;2023-08-24T10:37:59;5.57;;;3.45;;
8580;SDS011;4328;48.622;9.230;2023-08-24T10:40:31;8.05;;;3.20;;
8580;SDS011;4328;48.622;9.230;2023-08-24T10:42:58;3.70;;;3.40;;
8580;SDS011;4328;48.622;9.230;2023-08-24T10:45:28;3.33;;;3.03;;
8580;SDS011;4328;48.622;9.230;2023-08-24T10:48:15;5.32;;;3.63;;
8580;SDS011;4328;48.622;9.230;2023-08-24T10:50:43;3.97;;;3.10;;
8580;SDS011;4328;48.622;9.230;2023-08-24T10:53:38;6.05;;;3.30;;
8580;SDS011;4328;48.622;9.230;2023-08-24T10:56:10;4.82;;;3.70;;
8580;SDS011;4328;48.622;9.230;2023-08-24T10:58:37;4.30;;;3.50;;
8580;SDS011;4328;48.622;9.230;2023-08-24T11:01:04;3.90;;;3.55;;
8580;SDS011;4328;48.622;9.230;2023-08-24T11:03:31;6.07;;;3.90;;
8580;SDS011;4328;48.622;9.230;2023-08-24T11:05:59;4.13;;;3.80;;
8580;SDS011;4328;48.622;9.230;2023-08-24T11:11:07;5.88;;;3.70;;
8580;SDS011;4328;48.622;9.230;2023-08-24T11:13:56;7.18;;;3.65;;
8580;SDS011;4328;48.622;9.230;2023-08-24T11:16:39;4.15;;;3.55;;
8580;SDS011;4328;48.622;9.230;2023-08-24T11:19:06;5.30;;;3.83;;
8580;SDS011;4328;48.622;9.230;2023-08-24T11:21:34;5.00;;;3.67;;
8580;SDS011;4328;48.622;9.230;2023-08-24T11:24:01;5.85;;;3.58;;
8580;SDS011;4328;48.622;9.230;2023-08-24T11:26:28;5.88;;;3.83;;
8580;SDS011;4328;48.622;9.230;2023-08-24T11:28:55;6.78;;;3.63;;
8580;SDS011;4328;48.622;9.230;2023-08-24T11:31:22;7.03;;;3.92;;
8580;SDS011;4328;48.622;9.230;2023-08-24T11:33:53;6.25;;;3.75;;
8580;SDS011;4328;48.622;9.230;2023-08-24T11:36:19;5.28;;;3.50;;
8580;SDS011;4328;48.622;9.230;2023-08-24T11:38:47;5.28;;;3.90;;
8580;SDS011;4328;48.622;9.230;2023-08-24T11:41:14;5.88;;;3.70;;
8580;SDS011;4328;48.622;9.230;2023-08-24T11:43:40;6.93;;;3.80;;
8580;SDS011;4328;48.622;9.230;2023-08-24T11:46:06;6.45;;;3.65;;
8580;SDS011;4328;48.622;9.230;2023-08-24T11:48:33;7.70;;;3.75;;
8580;SDS011;4328;48.622;9.230;2023-08-24T11:51:01;4.05;;;3.75;;
8580;SDS011;4328;48.622;9.230;2023-08-24T11:53:28;4.57;;;3.80;;
8580;SDS011;4328;48.622;9.230;2023-08-24T11:55:58;5.15;;;4.10;;
8580;SDS011;4328;48.622;9.230;2023-08-24T11:58:27;7.53;;;3.78;;
8580;SDS011;4328;48.622;9.230;2023-08-24T12:00:53;9.88;;;3.65;;
8580;SDS011;4328;48.622;9.230;2023-08-24T12:03:20;6.65;;;3.80;;
8580;SDS011;4328;48.622;9.230;2023-08-24T12:05:46;6.68;;;3.92;;
8580;SDS011;4328;48.622;9.230;2023-08-24T12:08:13;4.32;;;3.47;;
8580;SDS011;4328;48.622;9.230;2023-08-24T12:10:42;8.23;;;3.47;;
8580;SDS011;4328;48.622;9.230;2023-08-24T12:13:11;6.60;;;3.78;;
8580;SDS011;4328;48.622;9.230;2023-08-24T12:15:38;8.27;;;3.70;;
8580;SDS011;4328;48.622;9.230;2023-08-24T12:18:07;4.47;;;3.70;;
8580;SDS011;4328;48.622;9.230;2023-08-24T12:20:34;6.20;;;3.67;;
8580;SDS011;4328;48.622;9.230;2023-08-24T12:23:00;6.68;;;3.70;;
8580;SDS011;4328;48.622;9.230;2023-08-24T12:25:27;3.85;;;3.50;;
8580;SDS011;4328;48.622;9.230;2023-08-24T12:28:07;6.75;;;3.47;;
8580;SDS011;4328;48.622;9.230;2023-08-24T12:30:45;4.72;;;3.33;;
8580;SDS011;4328;48.622;9.230;2023-08-24T12:33:20;7.47;;;3.75;;
8580;SDS011;4328;48.622;9.230;2023-08-24T12:35:47;7.38;;;3.75;;
8580;SDS011;4328;48.622;9.230;2023-08-24T12:38:13;4.30;;;3.70;;
8580;SDS011;4328;48.622;9.230;2023-08-24T12:40:40;7.20;;;3.58;;
8580;SDS011;4328;48.622;9.230;2023-08-24T12:43:09;7.07;;;3.65;;
8580;SDS011;4328;48.622;9.230;2023-08-24T12:45:36;6.68;;;3.78;;
8580;SDS011;4328;48.622;9.230;2023-08-24T12:48:05;8.23;;;3.75;;
8580;SDS011;4328;48.622;9.230;2023-08-24T12:50:32;5.20;;;3.70;;
8580;SDS011;4328;48.622;9.230;2023-08-24T12:52:58;7.78;;;4.07;;
8580;SDS011;4328;48.622;9.230;2023-08-24T12:55:25;6.68;;;3.92;;
8580;SDS011;4328;48.622;9.230;2023-08-24T12:57:52;7.47;;;3.70;;
8580;SDS011;4328;48.622;9.230;2023-08-24T13:00:19;5.55;;;3.78;;
8580;SDS011;4328;48.622;9.230;2023-08-24T13:02:45;6.40;;;3.83;;
8580;SDS011;4328;48.622;9.230;2023-08-24T13:05:13;6.30;;;4.00;;
8580;SDS011;4328;48.622;9.230;2023-08-24T13:07:40;8.20;;;4.00;;
8580;SDS011;4328;48.622;9.230;2023-08-24T13:10:06;11.27;;;4.30;;
8580;SDS011;4328;48.622;9.230;2023-08-24T13:12:36;3.65;;;3.33;;
8580;SDS011;4328;48.622;9.230;2023-08-24T13:15:03;8.38;;;4.20;;
8580;SDS011;4328;48.622;9.230;2023-08-24T13:17:30;6.05;;;3.63;;
8580;SDS011;4328;48.622;9.230;2023-08-24T13:19:56;4.05;;;3.42;;
8580;SDS011;4328;48.622;9.230;2023-08-24T13:22:24;6.47;;;3.70;;
8580;SDS011;4328;48.622;9.230;2023-08-24T13:24:51;8.27;;;4.30;;
8580;SDS011;4328;48.622;9.230;2023-08-24T13:27:20;5.05;;;3.85;;
8580;SDS011;4328;48.622;9.230;2023-08-24T13:29:47;11.65;;;4.10;;
8580;SDS011;4328;48.622;9.230;2023-08-24T13:32:13;8.38;;;4.20;;
8580;SDS011;4328;48.622;9.230;2023-08-24T13:34:40;7.25;;;3.70;;
8580;SDS011;4328;48.622;9.230;2023-08-24T13:37:06;5.68;;;4.22;;
8580;SDS011;4328;48.622;9.230;2023-08-24T13:39:34;10.07;;;3.65;;
8580;SDS011;4328;48.622;9.230;2023-08-24T13:42:01;9.45;;;4.07;;
8580;SDS011;4328;48.622;9.230;2023-08-24T13:44:27;5.95;;;3.67;;
8580;SDS011;4328;48.622;9.230;2023-08-24T13:46:54;9.48;;;3.63;;
8580;SDS011;4328;48.622;9.230;2023-08-24T13:49:20;7.30;;;3.97;;
8580;SDS011;4328;48.622;9.230;2023-08-24T13:51:47;6.55;;;3.67;;
8580;SDS011;4328;48.622;9.230;2023-08-24T13:54:14;12.35;;;4.03;;
8580;SDS011;4328;48.622;9.230;2023-08-24T13:56:42;8.82;;;4.07;;
8580;SDS011;4328;48.622;9.230;2023-08-24T13:59:09;6.82;;;3.97;;
8580;SDS011;4328;48.622;9.230;2023-08-24T14:01:35;8.02;;;4.03;;
8580;SDS011;4328;48.622;9.230;2023-08-24T14:04:02;7.55;;;4.00;;
8580;SDS011;4328;48.622;9.230;2023-08-24T14:06:28;9.80;;;4.22;;
8580;SDS011;4328;48.622;9.230;2023-08-24T14:08:55;9.93;;;4.28;;
8580;SDS011;4328;48.622;9.230;2023-08-24T14:11:22;6.53;;;3.90;;
8580;SDS011;4328;48.622;9.230;2023-08-24T14:13:50;8.38;;;4.30;;
8580;SDS011;4328;48.622;9.230;2023-08-24T14:16:16;7.10;;;4.10;;
8580;SDS011;4328;48.622;9.230;2023-08-24T14:18:43;9.55;;;4.05;;
8580;SDS011;4328;48.622;9.230;2023-08-24T14:21:10;9.68;;;4.25;;
8580;SDS011;4328;48.622;9.230;2023-08-24T14:23:37;9.63;;;4.07;;
8580;SDS011;4328;48.622;9.230;2023-08-24T14:26:03;11.88;;;4.10;;
8580;SDS011;4328;48.622;9.230;2023-08-24T14:31:13;10.75;;;4.50;;
8580;SDS011;4328;48.622;9.230;2023-08-24T14:33:39;9.88;;;3.88;;
8580;SDS011;4328;48.622;9.230;2023-08-24T14:36:06;11.10;;;4.15;;
8580;SDS011;4328;48.622;9.230;2023-08-24T14:38:32;11.10;;;4.00;;
8580;SDS011;4328;48.622;9.230;2023-08-24T14:40:58;11.70;;;4.25;;
8580;SDS011;4328;48.622;9.230;2023-08-24T14:43:26;11.52;;;4.22;;
8580;SDS011;4328;48.622;9.230;2023-08-24T14:45:52;8.40;;;4.43;;
8580;SDS011;4328;48.622;9.230;2023-08-24T14:48:20;8.20;;;3.95;;
8580;SDS011;4328;48.622;9.230;2023-08-24T14:50:46;7.45;;;3.92;;
8580;SDS011;4328;48.622;9.230;2023-08-24T14:53:12;6.70;;;4.28;;
8580;SDS011;4328;48.622;9.230;2023-08-24T14:55:39;7.95;;;4.20;;
8580;SDS011;4328;48.622;9.230;2023-08-24T14:58:05;6.63;;;4.20;;
8580;SDS011;4328;48.622;9.230;2023-08-24T15:00:32;7.38;;;4.30;;
8580;SDS011;4328;48.622;9.230;2023-08-24T15:02:58;9.43;;;4.45;;
8580;SDS011;4328;48.622;9.230;2023-08-24T15:05:26;7.40;;;4.15;;
8580;SDS011;4328;48.622;9.230;2023-08-24T15:07:53;8.63;;;4.78;;
8580;SDS011;4328;48.622;9.230;2023-08-24T15:10:19;7.18;;;4.38;;
8580;SDS011;4328;48.622;9.230;2023-08-24T15:12:46;9.40;;;4.55;;
8580;SDS011;4328;48.622;9.230;2023-08-24T15:15:12;9.95;;;5.18;;
8580;SDS011;4328;48.622;9.230;2023-08-24T15:17:42;9.18;;;4.88;;
8580;SDS011;4328;48.622;9.230;2023-08-24T15:20:09;11.02;;;4.70;;